Latest Weather Observations for Bridgetown

IDW60801

Issued at 10:02 pm WST Monday 22 December 2014 (issued every 30 minutes, with the page automatically refreshed every 10 minutes)

About weather observations | Map of weather stations | Latest weather observations for WA | Other Formats
Station Details ID: 009617 Name: BRIDGETOWN Lat: -33.95 Lon: 116.13 Height: 178.66 m
Data from the previous 72 hours. | See also: Recent months at Bridgetown
Date/Time
WST
Temp
°C
App
Temp
°C
Dew
Point
Rel
Hum
%
Delta-T
°C
Wind Press
QNH
hPa
Press
MSL
hPa
Rain
since 9 am
mm
Dir
 
Spd
km/h
Gust
km/h
Spd
kts
Gust
kts
22/10:00pm 14.3 13.0 9.9 75 2.3 SE 7 17 4 9 1020.4 1020.0 0.0
22/09:30pm 14.6 12.5 9.8 73 2.5 SSE 11 24 6 13 1020.3 1019.9 0.0
22/09:00pm 15.1 12.7 9.9 71 2.7 SSE 13 20 7 11 1019.9 1019.4 0.0
22/08:30pm 15.5 12.6 9.6 68 3.1 SSE 15 26 8 14 1019.5 1019.0 0.0
22/08:00pm 16.2 13.0 9.8 66 3.4 S 17 26 9 14 1019.4 1018.9 0.0
22/07:30pm 16.7 13.5 9.9 64 3.6 S 17 24 9 13 1019.2 1018.7 0.0
22/07:00pm 17.5 14.7 9.9 61 4.0 S 15 28 8 15 1018.8 1018.3 0.0
22/06:30pm 18.9 15.6 9.7 55 4.9 SSE 17 30 9 16 1018.4 1017.9 0.0
22/06:00pm 20.5 17.2 9.4 49 5.9 S 17 28 9 15 1017.7 1017.2 0.0
22/05:30pm 22.1 18.4 9.3 44 6.9 S 19 32 10 17 1017.1 1016.6 0.0
22/05:00pm 23.1 19.3 9.1 41 7.6 SSE 19 32 10 17 1016.8 1016.3 0.0
22/04:30pm 24.3 20.6 7.9 35 8.8 S 17 33 9 18 1016.6 1016.1 0.0
22/04:00pm 24.5 21.8 7.2 33 9.1 S 11 24 6 13 1016.4 1015.9 0.0
22/03:30pm 25.8 22.5 6.4 29 10.2 S 13 22 7 12 1016.5 1016.0 0.0
22/03:00pm 25.4 23.1 5.6 28 10.2 SSW 7 13 4 7 1016.7 1016.2 0.0
22/02:30pm 25.7 22.5 5.3 27 10.5 SSE 11 19 6 10 1017.0 1016.5 0.0
22/02:00pm 25.3 23.0 5.5 28 10.2 SE 7 20 4 11 1017.2 1016.7 0.0
22/01:30pm 25.2 23.0 5.4 28 10.2 S 6 17 3 9 1017.5 1017.0 0.0
22/01:00pm 23.4 21.1 4.9 30 9.3 N 6 9 3 5 1017.8 1017.3 0.0
22/12:30pm 23.4 20.6 5.3 31 9.2 S 9 13 5 7 1018.2 1017.7 0.0
22/12:00pm 23.0 20.9 6.7 35 8.4 SW 7 15 4 8 1018.3 1017.8 0.0
22/11:30am 22.2 20.5 6.0 35 8.2 NNE 4 9 2 5 1018.8 1018.3 0.0
22/11:00am 20.9 19.0 6.8 40 7.2 SSE 6 11 3 6 1019.0 1018.5 0.0
22/10:30am 20.4 18.1 7.4 43 6.7 ESE 9 17 5 9 1019.3 1018.8 0.0
22/10:00am 19.7 17.9 7.8 46 6.2 SE 7 15 4 8 1019.6 1019.1 0.0
22/09:30am 18.8 17.1 8.2 50 5.5 ESE 7 15 4 8 1019.9 1019.4 0.0
22/09:00am 17.7 15.9 8.0 53 5.0 SE 7 17 4 9 1020.0 1019.5 0.0
22/08:30am 17.3 15.2 8.2 55 4.7 SE 9 20 5 11 1020.2 1019.8 0.0
22/08:00am 15.9 13.8 8.2 60 3.9 SE 9 17 5 9 1020.3 1019.9 0.0
22/07:30am 15.0 13.3 8.5 65 3.3 SE 7 11 4 6 1020.3 1019.9 0.0
22/07:00am 13.7 12.4 9.2 74 2.3 SSE 6 9 3 5 1020.3 1019.9 0.0
22/06:30am 10.8 11.0 10.5 98 0.2 CALM 0 0 0 0 1020.0 1019.5 0.0
22/06:00am 8.4 8.0 8.3 99 0.0 CALM 0 0 0 0 1019.7 1019.2 0.0
22/05:30am 6.3 5.5 6.3 100 0.0 CALM 0 0 0 0 1019.4 1018.9 0.0
22/05:00am 6.3 5.4 6.2 99 0.0 CALM 0 0 0 0 1019.1 1018.6 0.0
22/04:30am 7.0 6.3 6.9 99 0.0 CALM 0 0 0 0 1018.8 1018.3 0.0
22/04:00am 7.0 6.3 6.9 99 0.0 CALM 0 0 0 0 1018.8 1018.3 0.0
22/03:30am 7.8 7.3 7.7 99 0.0 CALM 0 0 0 0 1018.7 1018.2 0.0
22/03:00am 8.9 8.6 8.8 99 0.0 CALM 0 0 0 0 1018.7 1018.2 0.0
22/02:30am 9.3 9.1 9.0 98 0.1 CALM 0 0 0 0 1018.8 1018.3 0.0
22/02:00am 10.4 9.7 9.9 97 0.3 S 4 7 2 4 1018.8 1018.3 0.0
22/01:30am 11.1 10.4 9.9 92 0.6 S 4 7 2 4 1019.2 1018.7 0.0
22/01:00am 11.6 10.5 9.9 89 0.9 S 6 7 3 4 1019.5 1019.0 0.0
22/12:30am 12.2 11.1 9.8 85 1.2 S 6 13 3 7 1019.7 1019.2 0.0
22/12:00am 12.6 11.7 9.4 81 1.6 SSE 4 9 2 5 1019.6 1019.1 0.0
 
Date/Time
WST
Temp
°C
App
Temp
°C
Dew
Point
Rel
Hum
%
Delta-T
°C
Wind Press
QNH
hPa
Press
MSL
hPa
Rain
since 9 am
mm
Dir
 
Spd
km/h
Gust
km/h
Spd
kts
Gust
kts
21/11:30pm 13.2 11.9 9.1 76 2.1 SE 6 9 3 5 1019.9 1019.4 0.0
21/11:00pm 13.8 12.2 8.8 72 2.5 SE 7 13 4 7 1019.9 1019.4 0.0
21/10:30pm 14.3 12.3 8.7 69 2.9 SSE 9 17 5 9 1019.9 1019.4 0.0
21/10:00pm 14.8 12.8 8.7 67 3.1 SSE 9 17 5 9 1019.8 1019.3 0.0
21/09:30pm 15.7 12.9 8.7 63 3.6 SSE 13 24 7 13 1019.6 1019.1 0.0
21/09:00pm 16.6 14.2 8.8 60 4.0 SSE 11 17 6 9 1019.3 1018.8 0.0
21/08:30pm 17.1 15.3 9.3 60 4.1 S 9 19 5 10 1019.0 1018.5 0.0
21/08:00pm 18.1 15.9 9.5 57 4.6 S 11 19 6 10 1018.6 1018.1 0.0
21/07:30pm 19.7 17.0 9.0 50 5.7 SSE 13 22 7 12 1018.2 1017.7 0.0
21/07:00pm 20.5 17.8 8.8 47 6.2 SSE 13 22 7 12 1017.8 1017.3 0.0
21/06:30pm 21.4 17.9 8.7 44 6.8 SSE 17 28 9 15 1017.5 1017.0 0.0
21/06:00pm 22.7 19.9 8.4 40 7.6 SSE 13 17 7 9 1017.3 1016.8 0.0
21/05:30pm 23.4 20.3 8.7 39 7.9 S 15 22 8 12 1017.2 1016.7 0.0
21/05:00pm 23.9 20.6 7.9 36 8.5 S 15 22 8 12 1017.1 1016.6 0.0
21/04:30pm 24.4 20.9 7.1 33 9.1 S 15 24 8 13 1017.1 1016.6 0.0
21/04:00pm 25.3 23.1 7.9 33 9.3 SSW 9 17 5 9 1017.2 1016.7 0.0
21/03:30pm 24.8 22.4 7.0 32 9.4 S 9 20 5 11 1017.3 1016.8 0.0
21/03:00pm 25.3 23.3 7.0 31 9.7 SSE 7 13 4 7 1017.6 1017.1 0.0
21/02:30pm 25.3 23.7 7.9 33 9.3 SSE 6 13 3 7 1017.8 1017.3 0.0
21/02:00pm 23.5 21.4 6.7 34 8.7 SE 7 15 4 8 1018.1 1017.6 0.0
21/01:30pm 22.6 20.1 8.3 40 7.6 ESE 11 20 6 11 1018.3 1017.8 0.0
21/01:00pm 21.6 19.1 8.1 42 7.1 E 11 20 6 11 1018.9 1018.4 0.0
21/12:30pm 21.3 19.1 9.2 46 6.5 SE 11 22 6 12 1019.5 1019.0 0.0
21/12:00pm 20.9 18.7 9.5 48 6.1 SSE 11 22 6 12 1020.0 1019.5 0.0
21/11:30am 19.0 17.3 9.8 55 4.9 SSE 9 17 5 9 1020.2 1019.8 0.0
21/11:00am 18.0 16.2 9.4 57 4.5 SE 9 17 5 9 1020.5 1020.1 0.0
21/10:30am 17.6 15.1 9.8 60 4.1 SE 13 20 7 11 1020.4 1020.0 0.0
21/10:00am 17.6 15.5 9.8 60 4.1 ESE 11 20 6 11 1020.5 1020.1 0.0
21/09:30am 16.9 14.9 10.1 64 3.6 SE 11 20 6 11 1020.8 1020.3 0.0
21/09:00am 15.8 13.0 9.9 68 3.1 SE 15 24 8 13 1020.8 1020.3 0.0
21/08:30am 15.7 12.6 10.2 70 2.9 SSE 17 30 9 16 1020.5 1020.1 0.0
21/08:00am 15.2 12.3 11.0 76 2.2 SSE 17 24 9 13 1020.3 1019.9 0.0
21/07:30am 14.8 12.5 11.8 82 1.6 SSE 15 26 8 14 1020.3 1019.9 0.0
21/07:00am 14.5 13.2 12.5 88 1.1 SSE 11 19 6 10 1020.3 1019.9 0.0
21/06:30am 14.1 12.5 12.7 91 0.8 S 13 19 7 10 1020.0 1019.5 0.0
21/06:00am 13.8 12.4 13.5 98 0.2 S 13 24 7 13 1019.8 1019.3 0.0
21/05:30am 14.5 13.5 13.4 93 0.6 S 11 17 6 9 1019.1 1018.6 0.0
21/05:00am 14.5 13.1 13.5 94 0.6 S 13 24 7 13 1018.7 1018.2 0.0
21/04:30am 14.8 12.8 12.7 87 1.2 S 15 24 8 13 1018.3 1017.8 0.0
21/04:00am 14.9 12.5 12.8 87 1.2 S 17 28 9 15 1018.1 1017.6 0.0
21/03:30am 14.8 14.1 14.2 96 0.3 S 11 19 6 10 1017.9 1017.4 0.0
21/03:00am 15.0 14.8 14.7 98 0.2 S 9 17 5 9 1017.8 1017.3 0.0
21/02:30am 15.1 14.8 14.5 96 0.3 S 9 15 5 8 1017.8 1017.3 0.0
21/02:00am 15.3 14.9 14.0 92 0.7 SSE 9 15 5 8 1017.8 1017.3 0.0
21/01:30am 15.2 15.1 13.9 92 0.7 SSE 7 17 4 9 1017.9 1017.4 0.0
21/01:00am 15.4 15.7 14.9 97 0.3 SSE 7 13 4 7 1018.0 1017.5 0.0
21/12:30am 15.3 15.1 14.8 97 0.3 SSE 9 15 5 8 1018.0 1017.5 0.0
21/12:00am 15.5 15.0 14.9 96 0.3 S 11 17 6 9 1018.0 1017.5 0.0
 
Date/Time
WST
Temp
°C
App
Temp
°C
Dew
Point
Rel
Hum
%
Delta-T
°C
Wind Press
QNH
hPa
Press
MSL
hPa
Rain
since 9 am
mm
Dir
 
Spd
km/h
Gust
km/h
Spd
kts
Gust
kts
20/11:30pm 15.7 14.5 14.1 90 0.9 S 13 20 7 11 1017.9 1017.4 0.0
20/11:00pm 15.6 14.9 13.3 86 1.3 S 9 15 5 8 1017.9 1017.4 0.0
20/10:30pm 15.7 14.8 12.5 81 1.8 SSE 9 17 5 9 1017.9 1017.4 0.0
20/10:00pm 16.2 14.4 12.2 77 2.2 SSE 13 22 7 12 1017.7 1017.2 0.0
20/09:30pm 16.7 13.7 12.0 74 2.6 SSE 19 32 10 17 1017.6 1017.1 0.0
20/09:00pm 17.2 14.2 11.9 71 2.9 SSE 19 35 10 19 1017.4 1016.9 0.0
20/08:30pm 17.5 14.5 12.0 70 3.0 SSE 19 37 10 20 1016.9 1016.4 0.0
20/08:00pm 17.9 14.7 11.9 68 3.3 S 20 30 11 16 1016.4 1015.9 0.0
20/07:30pm 18.7 15.5 11.8 64 3.8 SSE 20 32 11 17 1016.0 1015.5 0.0
20/07:00pm 19.3 15.6 10.3 56 4.9 S 20 33 11 18 1015.4 1014.9 0.0
20/06:30pm 20.0 16.4 10.4 54 5.2 S 20 35 11 19 1014.5 1014.0 0.0
20/06:00pm 21.0 16.4 9.6 48 6.2 S 24 41 13 22 1014.0 1013.5 0.0
20/05:30pm 21.8 17.5 9.3 45 6.7 S 22 35 12 19 1013.5 1013.0 0.0
20/05:00pm 22.2 17.7 8.7 42 7.2 SSE 22 33 12 18 1013.1 1012.6 0.0
20/04:30pm 22.1 16.2 7.5 39 7.6 S 28 44 15 24 1013.0 1012.5 0.0
20/04:00pm 22.6 17.4 10.1 45 6.9 S 28 44 15 24 1012.8 1012.3 0.0
20/03:30pm 23.1 18.1 9.5 42 7.4 S 26 46 14 25 1012.7 1012.2 0.0
20/03:00pm 23.6 19.6 10.6 44 7.3 S 22 37 12 20 1012.5 1012.0 0.0
20/02:30pm 23.0 17.6 9.4 42 7.4 SSE 28 43 15 23 1012.3 1011.8 0.0
20/02:04pm 23.6 18.2 9.6 41 7.7 SSE 28 46 15 25 1012.1 1011.6 0.0
20/02:00pm 23.5 18.2 9.9 42 7.5 SSE 28 46 15 25 1012.1 1011.6 0.0
20/01:30pm 23.8 19.1 10.8 44 7.3 S 26 39 14 21 1011.8 1011.3 0.0
20/01:00pm 23.0 18.7 10.8 46 6.8 S 24 39 13 21 1011.7 1011.2 0.0
20/12:30pm 22.9 18.6 12.2 51 6.1 S 26 37 14 20 1011.5 1011.0 0.0
20/12:00pm 23.2 20.1 14.5 58 5.2 SSE 24 37 13 20 1011.5 1011.0 0.0
20/11:30am 21.4 18.3 14.6 65 4.0 SSE 24 39 13 21 1011.5 1011.0 0.0
20/11:00am 20.1 18.4 15.7 76 2.6 S 19 33 10 18 1011.4 1010.9 0.0
20/10:30am 20.3 18.5 16.1 77 2.5 S 20 32 11 17 1011.2 1010.7 0.0
20/10:00am 21.6 19.2 15.4 68 3.7 SSW 22 39 12 21 1010.8 1010.3 0.0
20/09:30am 21.4 19.3 15.3 68 3.6 S 20 32 11 17 1010.6 1010.1 0.0
20/09:00am 22.4 21.4 15.7 66 4.1 S 15 24 8 13 1010.6 1010.1 1.0
20/08:30am 20.9 19.0 15.2 70 3.4 S 19 28 10 15 1010.6 1010.1 1.0
20/08:00am 20.5 19.6 14.8 70 3.4 S 13 24 7 13 1010.6 1010.1 1.0
20/07:30am 19.2 18.2 14.5 74 2.7 S 13 19 7 10 1010.7 1010.2 1.0
20/07:00am 18.0 17.0 14.5 80 2.0 S 13 22 7 12 1010.8 1010.3 1.0
20/06:30am 17.8 17.5 14.5 81 1.9 S 9 17 5 9 1010.5 1009.9 1.0
20/06:00am 17.0 16.1 13.7 81 1.9 S 11 17 6 9 1010.2 1009.6 1.0
20/05:30am 16.3 17.9 16.0 98 0.2 S 2 7 1 4 1009.8 1009.2 1.0
20/05:00am 15.5 17.2 15.2 98 0.2 CALM 0 0 0 0 1009.3 1008.7 1.0
20/04:30am 15.9 17.7 15.6 98 0.2 CALM 0 0 0 0 1009.1 1008.5 1.0
20/04:00am 16.1 17.7 14.8 92 0.8 CALM 0 0 0 0 1008.8 1008.3 1.0
20/03:30am 16.6 17.7 14.6 88 1.2 S 2 4 1 2 1008.7 1008.2 1.0
20/03:00am 16.8 18.4 14.8 88 1.2 CALM 0 4 0 2 1008.8 1008.3 1.0
20/02:30am 17.3 18.1 13.8 80 2.0 SSE 2 7 1 4 1009.3 1008.7 1.0
20/02:00am 17.3 18.0 14.4 83 1.7 SE 4 9 2 5 1009.6 1009.0 1.0
20/01:30am 18.3 18.2 13.4 73 2.8 S 6 9 3 5 1010.1 1009.5 1.0
20/01:00am 18.4 18.9 14.9 80 2.1 SSE 6 11 3 6 1010.8 1010.3 1.0
20/12:30am 18.4 19.1 15.5 83 1.7 S 6 11 3 6 1011.2 1010.7 1.0
20/12:00am 19.2 19.2 15.1 77 2.4 SSE 9 13 5 7 1011.3 1010.8 0.2
 
Date/Time
WST
Temp
°C
App
Temp
°C
Dew
Point
Rel
Hum
%
Delta-T
°C
Wind Press
QNH
hPa
Press
MSL
hPa
Rain
since 9 am
mm
Dir
 
Spd
km/h
Gust
km/h
Spd
kts
Gust
kts
19/11:30pm 19.8 20.0 14.8 73 2.9 S 7 11 4 6 1012.4 1011.9 0.2
19/11:00pm 19.9 20.4 15.1 74 2.8 SSE 6 13 3 7 1012.4 1011.9 0.2
19/10:30pm 20.6 20.0 14.5 68 3.6 SSE 11 19 6 10 1012.1 1011.6 0.2

Other Formats:

Comma delimited format used in spreadsheet applications
http://www.bom.gov.au/fwo/IDW60801/IDW60801.95632.axf

JavaScript Object Notation format (JSON) in row-major order
http://www.bom.gov.au/fwo/IDW60801/IDW60801.95632.json